Time;durP1;ratioP1;P1;durP2;ratioP2;P2;SDS_P1;SDS_P2;PMS_P1;PMS_P2;Temp;Humidity;BMP_temperature;BMP_pressure;BME280_temperature;BME280_humidity;BME280_pressure;Samples;Min_cycle;Max_cycle;Signal;HPM_P1;HPM_P2
2022/06/05 00:01:40;;;;;;;;;10.50;10.50;;;;;22.79;55.98;100946.50;5016287;28;45479;-55
2022/06/05 00:04:31;;;;;;;;;13.25;12.00;;;;;22.78;56.30;100925.47;5015952;28;46049;-55
2022/06/05 00:07:36;;;;;;;;;11.75;10.75;;;;;22.75;56.00;100926.50;5016159;28;45891;-55
2022/06/05 00:10:20;;;;;;;;;14.25;10.00;;;;;22.75;56.03;100936.22;4994506;28;45391;-54
2022/06/05 00:13:20;;;;;;;;;11.00;11.00;;;;;22.75;56.11;100931.78;5014854;28;45496;-54
2022/06/05 00:15:46;;;;;;;;;12.00;10.25;;;;;22.76;55.94;100922.94;5015851;28;46450;-55
2022/06/05 00:18:12;;;;;;;;;11.00;11.00;;;;;22.75;56.16;100926.50;5015844;28;45363;-55
2022/06/05 00:20:41;;;;;;;;;13.50;10.50;;;;;22.75;55.82;100931.78;5015784;28;45280;-55
2022/06/05 00:23:06;;;;;;;;;9.25;9.25;;;;;22.75;55.84;100937.06;5015973;28;45515;-54
2022/06/05 00:25:56;;;;;;;;;10.50;10.50;;;;;22.75;55.94;100947.66;5016023;28;45268;-55
2022/06/05 00:28:46;;;;;;;;;9.00;9.00;;;;;22.76;55.81;100941.41;4993611;28;45529;-55
2022/06/05 00:31:20;;;;;;;;;10.50;9.25;;;;;22.76;55.68;100935.28;5015792;28;45388;-55
2022/06/05 00:33:46;;;;;;;;;10.75;9.50;;;;;22.77;55.54;100924.59;5016170;28;45832;-54
2022/06/05 00:36:30;;;;;;;;;10.75;9.50;;;;;22.77;56.12;100921.13;5015512;28;46129;-55
2022/06/05 00:39:04;;;;;;;;;10.50;9.50;;;;;22.72;55.91;100904.69;5015949;28;45907;-55
2022/06/05 00:42:02;;;;;;;;;9.50;9.50;;;;;22.78;55.89;100914.88;5017921;28;45321;-55
2022/06/05 00:44:42;;;;;;;;;7.50;7.00;;;;;22.77;55.88;100911.38;5019444;28;45338;-55
2022/06/05 00:47:11;;;;;;;;;12.00;10.00;;;;;22.78;55.87;100899.88;5019068;28;45331;-55
2022/06/05 00:49:44;;;;;;;;;10.50;9.00;;;;;22.78;55.55;100897.22;5019032;28;45965;-55
2022/06/05 00:52:13;;;;;;;;;10.75;9.00;;;;;22.76;55.84;100888.56;5019089;28;45332;-56
2022/06/05 00:54:39;;;;;;;;;13.75;10.00;;;;;22.78;55.78;100888.47;5019027;28;45494;-55
2022/06/05 00:57:08;;;;;;;;;8.50;8.50;;;;;22.77;55.70;100887.59;5019141;28;46319;-54
2022/06/05 00:59:34;;;;;;;;;10.00;10.00;;;;;22.78;56.11;100889.31;5019153;28;45268;-55
2022/06/05 01:01:59;;;;;;;;;10.00;9.00;;;;;22.78;55.72;100894.59;5018917;28;45312;-55
2022/06/05 01:04:26;;;;;;;;;7.25;6.50;;;;;22.77;55.67;100892.88;5019014;28;45261;-56
2022/06/05 01:06:52;;;;;;;;;9.50;9.00;;;;;22.77;55.86;100892.06;5018471;28;46263;-53
2022/06/05 01:09:18;;;;;;;;;11.00;10.00;;;;;22.79;55.87;100903.38;5018621;28;45956;-55
2022/06/05 01:12:01;;;;;;;;;11.00;10.50;;;;;22.78;55.76;100894.59;5018586;28;45170;-55
2022/06/05 01:14:56;;;;;;;;;13.25;10.75;;;;;22.78;56.12;100886.66;5018913;28;45435;-55
2022/06/05 01:17:37;;;;;;;;;11.00;11.00;;;;;22.78;55.93;100878.72;5008615;28;46272;-54
2022/06/05 01:20:11;;;;;;;;;10.75;9.50;;;;;22.78;56.17;100862.88;5018358;28;46053;-55
2022/06/05 01:22:54;;;;;;;;;10.50;10.00;;;;;22.79;56.24;100864.56;5018906;28;45205;-55
2022/06/05 01:25:31;;;;;;;;;11.75;9.50;;;;;22.78;56.17;100854.94;5018703;28;45359;-52
2022/06/05 01:28:02;;;;;;;;;12.00;10.00;;;;;22.78;56.12;100851.47;5018152;28;46217;-55
2022/06/05 01:30:31;;;;;;;;;12.50;10.00;;;;;22.78;56.26;100839.09;5018334;28;45490;-55
2022/06/05 01:33:10;;;;;;;;;9.75;8.75;;;;;22.78;56.25;100840.91;5018387;28;45228;-55
2022/06/05 01:35:50;;;;;;;;;11.00;10.50;;;;;22.78;55.87;100830.34;5018752;28;45364;-54
2022/06/05 01:38:21;;;;;;;;;10.25;9.25;;;;;22.79;56.28;100824.09;5018140;28;45336;-54
2022/06/05 01:40:53;;;;;;;;;12.00;12.00;;;;;22.78;56.32;100825.88;5018161;28;45395;-54
2022/06/05 01:43:32;;;;;;;;;10.75;10.75;;;;;22.78;56.36;100819.75;5018298;28;45426;-54
2022/06/05 01:46:06;;;;;;;;;14.75;12.00;;;;;22.78;56.28;100817.13;5018353;28;45311;-54
2022/06/05 01:48:41;;;;;;;;;9.00;9.00;;;;;22.78;56.55;100809.19;5017863;28;47067;-55
2022/06/05 01:51:15;;;;;;;;;11.50;11.50;;;;;22.78;56.59;100807.38;5017732;28;45376;-55
2022/06/05 01:53:44;;;;;;;;;12.50;10.25;;;;;22.78;56.49;100799.47;5018076;28;45375;-54
2022/06/05 01:56:22;;;;;;;;;12.00;10.25;;;;;22.77;56.56;100799.56;5018369;28;45539;-55
2022/06/05 01:58:54;;;;;;;;;10.00;10.00;;;;;22.77;56.29;100789.84;5017725;28;47148;-55
2022/06/05 02:01:30;;;;;;;;;11.00;9.25;;;;;22.78;56.13;100799.47;5006842;28;45795;-55
2022/06/05 02:04:20;;;;;;;;;10.50;9.75;;;;;22.79;56.42;100785.31;4998152;28;45316;-55
2022/06/05 02:06:53;;;;;;;;;12.00;10.75;;;;;22.78;56.76;100782.78;4998131;28;45347;-53
2022/06/05 02:09:23;;;;;;;;;8.75;8.75;;;;;22.80;56.48;100778.25;4997828;28;45508;-55
2022/06/05 02:11:49;;;;;;;;;11.25;10.75;;;;;22.80;56.41;100767.66;4997850;28;45750;-54
2022/06/05 02:14:15;;;;;;;;;13.00;11.50;;;;;22.81;56.23;100777.28;4997819;28;45247;-54
2022/06/05 02:16:42;;;;;;;;;14.25;12.50;;;;;22.81;56.51;100769.38;4998351;28;45154;-55
2022/06/05 02:19:12;;;;;;;;;11.00;10.25;;;;;22.81;56.57;100757.00;4997882;28;46195;-55
2022/06/05 02:21:38;;;;;;;;;16.00;12.00;;;;;22.81;56.51;100762.28;4997765;28;45700;-53
2022/06/05 02:24:06;;;;;;;;;14.50;13.50;;;;;22.81;56.50;100762.28;4997764;28;45250;-53
2022/06/05 02:26:31;;;;;;;;;13.75;12.00;;;;;22.80;56.29;100760.56;4997973;28;45746;-54
2022/06/05 02:28:56;;;;;;;;;12.25;12.00;;;;;22.81;56.30;100756.16;4997499;28;45402;-55
2022/06/05 02:31:22;;;;;;;;;13.50;12.50;;;;;22.81;56.40;100754.34;4997405;28;45386;-55
2022/06/05 02:34:12;;;;;;;;;12.33;12.33;;;;;22.81;56.43;100759.63;4997752;28;45327;-55
2022/06/05 02:36:49;;;;;;;;;12.75;11.00;;;;;22.81;56.25;100753.50;4997960;28;45312;-53
2022/06/05 02:39:42;;;;;;;;;12.50;12.50;;;;;22.80;56.57;100749.19;4997426;28;46197;-54
2022/06/05 02:42:38;;;;;;;;;11.00;11.00;;;;;22.79;56.42;100740.38;4997679;28;45793;-55
2022/06/05 02:45:23;;;;;;;;;15.25;12.00;;;;;22.79;56.42;100732.47;4997544;28;45205;-54
2022/06/05 02:48:11;;;;;;;;;12.50;11.25;;;;;22.79;56.17;100737.75;4997615;28;45381;-55
2022/06/05 02:50:54;;;;;;;;;13.25;12.00;;;;;22.77;56.07;100734.34;4991437;28;46367;-53
2022/06/05 02:53:20;;;;;;;;;14.25;11.25;;;;;22.79;56.21;100731.63;4997254;28;45300;-54
2022/06/05 02:55:45;;;;;;;;;14.50;13.50;;;;;22.78;56.37;100736.03;4997234;28;45568;-54
2022/06/05 02:58:12;;;;;;;;;13.25;11.00;;;;;22.78;56.63;100737.84;4997686;28;45597;-56
2022/06/05 03:00:38;;;;;;;;;10.50;10.50;;;;;22.77;56.32;100726.41;5012281;28;48619;-55
2022/06/05 03:05:49;;;;;;;;;15.00;12.25;;;;;22.75;56.37;100736.28;4997200;28;45387;-54
2022/06/05 03:08:16;;;;;;;;;10.75;10.75;;;;;22.76;56.02;100739.75;4996069;28;45480;-55
2022/06/05 03:10:42;;;;;;;;;11.25;11.25;;;;;22.75;55.96;100738.91;4997066;28;46057;-53
2022/06/05 03:13:09;;;;;;;;;10.75;9.50;;;;;22.76;56.00;100750.31;4996880;28;45806;-55
2022/06/05 03:15:34;;;;;;;;;10.50;9.25;;;;;22.75;56.10;100752.13;4997128;28;45403;-55
2022/06/05 03:18:00;;;;;;;;;9.75;8.75;;;;;22.77;56.21;100754.66;4997052;28;45511;-55
2022/06/05 03:20:26;;;;;;;;;8.75;8.75;;;;;22.76;55.87;100753.81;4996642;28;46046;-55
2022/06/05 03:22:52;;;;;;;;;11.25;10.00;;;;;22.75;55.94;100757.41;4996711;28;45182;-53
2022/06/05 03:25:22;;;;;;;;;9.75;8.50;;;;;22.76;56.31;100745.03;4996904;28;45316;-54
2022/06/05 03:27:47;;;;;;;;;10.00;8.75;;;;;22.77;56.12;100744.91;4997158;28;45250;-54
2022/06/05 03:30:15;;;;;;;;;10.75;8.50;;;;;22.79;55.92;100750.13;4996768;28;46284;-54
2022/06/05 03:32:42;;;;;;;;;9.00;9.00;;;;;22.79;56.04;100747.47;4996865;28;45256;-55
2022/06/05 03:35:08;;;;;;;;;12.75;9.75;;;;;22.79;55.52;100737.75;4996741;28;45257;-54
2022/06/05 03:37:34;;;;;;;;;10.00;9.00;;;;;22.76;55.87;100743.25;4996807;28;45288;-54
2022/06/05 03:40:00;;;;;;;;;10.00;9.50;;;;;22.78;55.55;100749.25;4995518;28;46766;-55
2022/06/05 03:42:25;;;;;;;;;8.75;8.75;;;;;22.79;55.86;100744.84;4996510;28;45372;-55
2022/06/05 03:44:51;;;;;;;;;8.25;7.50;;;;;22.78;55.73;100757.19;4996657;28;45305;-54
2022/06/05 03:47:16;;;;;;;;;9.50;9.00;;;;;22.78;55.95;100770.41;4996735;28;45385;-53
2022/06/05 03:49:42;;;;;;;;;8.00;8.00;;;;;22.77;55.93;100773.97;4996725;28;46149;-55
2022/06/05 03:52:09;;;;;;;;;10.50;8.25;;;;;22.80;55.64;100783.53;4996389;28;45443;-55
2022/06/05 03:54:37;;;;;;;;;8.50;8.00;;;;;22.79;55.48;100781.81;4996735;28;45176;-55
2022/06/05 03:57:04;;;;;;;;;9.00;9.00;;;;;22.79;55.48;100781.81;4996689;28;45416;-55
2022/06/05 03:59:30;;;;;;;;;7.50;7.50;;;;;22.79;55.49;100784.47;4996332;28;46181;-55
2022/06/05 04:01:55;;;;;;;;;10.25;8.25;;;;;22.77;55.69;100784.56;4996300;28;45321;-55
2022/06/05 04:04:21;;;;;;;;;9.00;7.00;;;;;22.78;55.36;100788.06;4996666;28;45397;-54
2022/06/05 04:06:47;;;;;;;;;8.25;8.00;;;;;22.78;55.41;100793.34;4996756;28;45480;-55
2022/06/05 04:09:12;;;;;;;;;10.75;9.75;;;;;22.78;55.38;100794.19;4995163;28;46161;-53
2022/06/05 04:11:38;;;;;;;;;12.50;10.00;;;;;22.77;54.97;100797.75;4996106;28;46047;-53
2022/06/05 04:14:05;;;;;;;;;10.00;9.50;;;;;22.77;55.53;100810.13;4998627;28;45324;-54
2022/06/05 04:16:32;;;;;;;;;10.00;8.75;;;;;22.74;55.49;100808.56;4999917;28;45599;-54
2022/06/05 04:18:59;;;;;;;;;12.00;10.00;;;;;22.76;55.71;100811.09;4999673;28;45992;-54
2022/06/05 04:21:28;;;;;;;;;11.25;10.00;;;;;22.74;55.01;100811.19;4999479;28;45875;-54
2022/06/05 04:23:54;;;;;;;;;11.75;11.75;;;;;22.72;55.53;100813.09;4999628;28;45352;-55
2022/06/05 04:26:23;;;;;;;;;14.50;11.50;;;;;22.70;55.68;100821.13;5015883;28;45585;-55
2022/06/05 04:28:49;;;;;;;;;13.25;10.75;;;;;22.67;55.67;100823.09;5019296;28;45407;-55
2022/06/05 04:31:18;;;;;;;;;12.50;9.75;;;;;22.62;55.85;100826.03;5019552;28;45783;-56
2022/06/05 04:33:44;;;;;;;;;14.75;12.25;;;;;22.60;55.75;100835.00;5019750;28;45276;-54
2022/06/05 04:36:09;;;;;;;;;16.00;12.00;;;;;22.55;55.85;100822.94;5000679;28;45244;-55
2022/06/05 04:38:34;;;;;;;;;13.25;12.00;;;;;22.52;55.59;100831.06;4999371;28;46193;-55
2022/06/05 04:41:00;;;;;;;;;11.50;11.50;;;;;22.49;55.87;100835.72;4999396;28;45248;-52
2022/06/05 04:43:25;;;;;;;;;14.00;12.25;;;;;22.48;55.91;100844.56;4999400;28;45316;-54
2022/06/05 04:45:50;;;;;;;;;13.25;10.00;;;;;22.47;55.76;100854.28;4999216;28;45630;-54
2022/06/05 04:48:16;;;;;;;;;11.00;10.25;;;;;22.45;56.16;100861.44;4999435;28;46297;-52
2022/06/05 04:50:41;;;;;;;;;9.25;9.25;;;;;22.43;56.28;100859.84;4998879;28;45409;-53
2022/06/05 04:53:06;;;;;;;;;12.50;11.00;;;;;22.42;55.87;100864.31;4998824;28;45332;-54
2022/06/05 04:55:32;;;;;;;;;10.25;10.25;;;;;22.42;56.25;100866.06;4997839;28;45289;-55
2022/06/05 04:57:57;;;;;;;;;10.75;9.00;;;;;22.39;56.27;100867.09;4998652;28;46397;-55
2022/06/05 05:00:23;;;;;;;;;10.00;9.00;;;;;22.37;56.17;100871.63;4998792;28;45302;-55
2022/06/05 05:02:49;;;;;;;;;10.25;9.00;;;;;22.36;56.35;100869.91;4998995;28;45379;-56
2022/06/05 05:05:14;;;;;;;;;7.25;7.25;;;;;22.35;56.19;100876.13;4999065;28;45378;-55
2022/06/05 05:07:40;;;;;;;;;9.00;9.00;;;;;22.35;56.37;100870.84;4997264;28;45804;-56
2022/06/05 05:10:06;;;;;;;;;10.25;10.25;;;;;22.33;56.33;100873.59;4998436;28;45293;-53
2022/06/05 05:12:31;;;;;;;;;8.25;8.25;;;;;22.31;56.10;100858.81;4998608;28;45388;-54
2022/06/05 05:14:56;;;;;;;;;9.00;8.00;;;;;22.32;56.11;100865.78;4998671;28;45297;-55
2022/06/05 05:17:22;;;;;;;;;14.50;11.00;;;;;22.30;55.80;100857.94;4998467;28;45374;-54
2022/06/05 05:19:47;;;;;;;;;9.00;8.25;;;;;22.31;56.08;100864.94;4998727;28;45423;-54
2022/06/05 05:22:13;;;;;;;;;9.00;8.00;;;;;22.31;56.38;100869.38;4998343;28;45249;-55
2022/06/05 05:24:38;;;;;;;;;8.50;8.50;;;;;22.31;55.99;100869.38;5012912;28;45296;-55
2022/06/05 05:27:03;;;;;;;;;8.00;6.75;;;;;22.29;56.16;100866.81;4998165;28;45987;-53
2022/06/05 05:29:29;;;;;;;;;8.75;7.75;;;;;22.29;56.30;100858.06;4998186;28;45482;-54
2022/06/05 05:31:54;;;;;;;;;9.00;7.25;;;;;22.31;56.16;100869.38;4998091;28;45442;-53
2022/06/05 05:34:20;;;;;;;;;8.75;8.75;;;;;22.29;55.94;100866.81;4998624;28;45345;-55
2022/06/05 05:36:45;;;;;;;;;11.75;11.00;;;;;22.29;55.91;100871.25;4997953;28;45390;-55
2022/06/05 05:42:04;;;;;;;;;9.25;9.25;;;;;22.28;56.32;100872.19;5017831;28;45443;-56
2022/06/05 05:44:36;;;;;;;;;7.75;7.75;;;;;22.26;56.37;100867.03;5018194;28;45216;-52
2022/06/05 05:47:06;;;;;;;;;13.25;11.50;;;;;22.27;56.38;100875.78;5014419;28;47453;-55
2022/06/05 05:49:32;;;;;;;;;12.00;11.00;;;;;22.20;56.54;100877.94;5018100;28;45250;-55
2022/06/05 05:51:57;;;;;;;;;11.75;10.25;;;;;22.15;56.59;100875.59;5017957;28;45708;-56
2022/06/05 05:54:23;;;;;;;;;10.25;9.25;;;;;22.12;56.56;100873.13;5018059;28;45593;-55
2022/06/05 05:56:48;;;;;;;;;11.25;11.25;;;;;22.10;56.43;100877.69;5003412;28;46101;-56
2022/06/05 05:59:14;;;;;;;;;14.50;11.50;;;;;22.07;56.89;100869.94;5001358;28;45343;-57
2022/06/05 06:01:39;;;;;;;;;11.25;11.25;;;;;22.05;56.99;100866.56;5005709;28;45260;-55
2022/06/05 06:04:04;;;;;;;;;13.50;10.00;;;;;22.03;57.02;100857.88;5018021;28;45323;-55
2022/06/05 06:06:32;;;;;;;;;9.50;9.50;;;;;22.05;56.74;100859.47;5013926;28;47705;-54
2022/06/05 06:08:58;;;;;;;;;11.50;11.50;;;;;22.06;56.86;100855.06;5017508;28;45854;-54
2022/06/05 06:11:24;;;;;;;;;11.50;9.50;;;;;22.11;56.95;100858.25;5017574;28;45735;-53
2022/06/05 06:13:49;;;;;;;;;11.50;10.50;;;;;22.13;56.96;100866.09;5017650;28;45504;-55
2022/06/05 06:16:15;;;;;;;;;14.25;11.50;;;;;22.16;56.76;100863.25;5017502;28;45282;-55
2022/06/05 06:18:40;;;;;;;;;8.50;7.00;;;;;22.16;57.18;100858.81;5017513;28;45342;-55
2022/06/05 06:21:05;;;;;;;;;12.50;8.50;;;;;22.18;57.10;100858.72;5017507;28;45371;-55
2022/06/05 06:23:31;;;;;;;;;10.00;8.25;;;;;22.20;56.64;100856.84;5015812;28;45327;-54
2022/06/05 06:25:56;;;;;;;;;9.00;7.50;;;;;22.23;56.82;100846.91;5014276;28;47090;-55
2022/06/05 06:28:21;;;;;;;;;10.00;9.00;;;;;22.24;56.90;100848.63;5017469;28;45321;-53
2022/06/05 06:30:47;;;;;;;;;10.00;10.00;;;;;22.28;56.83;100845.78;5017622;28;45142;-54
2022/06/05 06:33:13;;;;;;;;;7.25;6.25;;;;;22.29;56.64;100850.13;5017553;28;45466;-53
2022/06/05 06:35:39;;;;;;;;;7.00;7.00;;;;;22.30;56.68;100841.28;5017264;28;46053;-55
2022/06/05 06:38:05;;;;;;;;;9.50;8.25;;;;;22.33;56.78;100849.84;5017123;28;45487;-55
2022/06/05 06:40:31;;;;;;;;;8.25;8.00;;;;;22.34;56.79;100850.69;5017385;28;45308;-55
2022/06/05 06:42:57;;;;;;;;;7.00;7.00;;;;;22.35;56.89;100844.47;5017577;28;45392;-54
2022/06/05 06:45:24;;;;;;;;;6.75;6.75;;;;;22.37;56.89;100839.94;5017335;28;45447;-57
2022/06/05 06:47:49;;;;;;;;;7.25;7.00;;;;;22.40;56.88;100837.09;5017244;28;45843;-54
2022/06/05 06:50:16;;;;;;;;;11.00;8.00;;;;;22.41;56.80;100836.19;5017228;28;45303;-55
2022/06/05 06:52:41;;;;;;;;;7.00;7.00;;;;;22.43;57.16;100834.31;5017242;28;45355;-54
2022/06/05 06:55:10;;;;;;;;;6.50;6.50;;;;;22.47;56.76;100829.69;5017029;28;46459;-55
2022/06/05 06:57:35;;;;;;;;;6.00;6.00;;;;;22.48;56.74;100824.28;5016954;28;45850;-52
2022/06/05 07:00:01;;;;;;;;;6.00;6.00;;;;;22.50;57.16;100821.53;5017139;28;45705;-54
2022/06/05 07:02:26;;;;;;;;;9.00;7.75;;;;;22.50;57.12;100819.75;5017270;28;45359;-53
2022/06/05 07:04:51;;;;;;;;;9.75;7.00;;;;;22.50;57.18;100819.75;5016730;28;57214;-54
2022/06/05 07:07:17;;;;;;;;;7.75;7.75;;;;;22.50;57.19;100817.13;5016549;28;50669;-55
2022/06/05 07:09:42;;;;;;;;;9.75;7.25;;;;;22.53;57.04;100819.56;5016890;28;45330;-55
2022/06/05 07:12:07;;;;;;;;;8.00;8.00;;;;;22.56;57.01;100829.09;5016968;28;45295;-55
2022/06/05 07:14:33;;;;;;;;;6.25;6.25;;;;;22.58;57.06;100815.75;5016600;28;45352;-55
2022/06/05 07:16:58;;;;;;;;;8.00;7.00;;;;;22.60;57.14;100819.16;5016684;28;45886;-54
2022/06/05 07:19:23;;;;;;;;;9.50;8.00;;;;;22.62;57.14;100819.91;5016719;28;50660;-55
2022/06/05 07:21:49;;;;;;;;;5.50;4.75;;;;;22.63;57.31;100816.31;5016154;28;48120;-55
2022/06/05 07:24:16;;;;;;;;;9.00;7.50;;;;;22.65;57.16;100815.28;5016580;28;45569;-55
2022/06/05 07:26:41;;;;;;;;;7.75;7.75;;;;;22.66;57.15;100810.81;5016449;28;45293;-56
2022/06/05 07:29:07;;;;;;;;;6.00;6.00;;;;;22.68;57.02;100815.09;5016278;28;45241;-55
2022/06/05 07:31:32;;;;;;;;;7.00;6.00;;;;;22.70;57.09;100812.34;5016688;28;45502;-55
2022/06/05 07:33:59;;;;;;;;;6.75;6.25;;;;;22.73;57.12;100817.44;5016749;28;46109;-55
2022/06/05 07:36:26;;;;;;;;;6.00;6.00;;;;;22.74;56.87;100816.47;5016618;28;46076;-56
2022/06/05 07:38:53;;;;;;;;;5.00;5.00;;;;;22.77;56.75;100812.78;5016116;28;45425;-54
2022/06/05 07:41:27;;;;;;;;;5.75;5.75;;;;;22.81;56.75;100811.66;5016785;28;45234;-55
2022/06/05 07:43:53;;;;;;;;;6.75;6.75;;;;;22.83;57.16;100810.59;5016332;28;46176;-53
2022/06/05 07:46:19;;;;;;;;;5.00;5.00;;;;;22.87;56.63;100813.03;5016337;28;45229;-54
2022/06/05 07:48:46;;;;;;;;;5.00;5.00;;;;;22.90;56.59;100815.47;5020218;28;45574;-54
2022/06/05 07:54:30;;;;;;;;;5.25;5.25;;;;;22.91;56.39;100819.78;4942229;28;45403;-55
2022/06/05 07:57:14;;;;;;;;;6.00;6.00;;;;;22.94;56.50;100830.19;4941343;28;45921;-55
2022/06/05 07:59:42;;;;;;;;;6.50;5.00;;;;;22.93;56.89;100821.38;4993988;28;45546;-55
2022/06/05 08:02:18;;;;;;;;;7.00;5.75;;;;;22.94;56.43;100822.25;5022990;28;45528;-55
2022/06/05 08:04:44;;;;;;;;;6.00;6.00;;;;;22.93;56.48;100829.31;5022584;28;47217;-54
2022/06/05 08:07:12;;;;;;;;;5.00;5.00;;;;;22.96;56.34;100823.00;5022670;28;45312;-55
2022/06/05 08:09:38;;;;;;;;;6.50;6.50;;;;;22.95;56.07;100813.38;5022754;28;45311;-56
2022/06/05 08:12:05;;;;;;;;;6.00;6.00;;;;;22.96;56.36;100823.00;5022830;28;45529;-56
2022/06/05 08:14:34;;;;;;;;;7.00;5.00;;;;;22.95;56.38;100831.88;5022538;28;45400;-55
2022/06/05 08:17:00;;;;;;;;;9.25;6.75;;;;;22.96;56.04;100838.84;5022973;28;45731;-56
2022/06/05 08:19:26;;;;;;;;;6.00;6.00;;;;;22.97;56.25;100838.75;5022981;28;45359;-56
2022/06/05 08:21:52;;;;;;;;;4.00;4.00;;;;;22.97;56.37;100841.38;5022727;28;45508;-56
2022/06/05 08:24:18;;;;;;;;;3.25;3.00;;;;;22.97;56.17;100836.09;5022343;28;46155;-56
2022/06/05 08:26:44;;;;;;;;;6.75;5.25;;;;;22.97;56.13;100835.28;5022403;28;45385;-57
2022/06/05 08:29:10;;;;;;;;;7.00;7.00;;;;;22.98;56.21;100836.97;5022694;28;45317;-55
2022/06/05 08:31:37;;;;;;;;;4.25;4.25;;;;;22.98;55.93;100839.63;5022517;28;45509;-57
2022/06/05 08:34:03;;;;;;;;;5.00;5.00;;;;;22.98;56.08;100843.09;5022296;28;45469;-56
2022/06/05 08:36:29;;;;;;;;;6.25;6.25;;;;;22.98;55.91;100850.19;5022686;28;45454;-57
2022/06/05 08:42:02;;;;;;;;;7.00;5.25;;;;;23.00;55.64;100850.91;5022615;28;45311;-56
2022/06/05 08:44:40;;;;;;;;;6.50;6.50;;;;;22.99;56.18;100849.22;5022798;28;46282;-56
2022/06/05 08:47:15;;;;;;;;;7.75;6.00;;;;;22.99;56.07;100849.22;5022265;28;45783;-56
2022/06/05 08:49:45;;;;;;;;;6.00;6.00;;;;;22.98;56.04;100852.81;5022395;28;45308;-56
2022/06/05 08:52:26;;;;;;;;;6.00;6.00;;;;;22.98;55.98;100858.94;5022400;28;45254;-56
2022/06/05 08:55:05;;;;;;;;;5.25;5.00;;;;;22.99;56.14;100865.06;5022027;28;46231;-57
2022/06/05 08:57:43;;;;;;;;;5.25;5.00;;;;;23.00;55.83;100861.47;5022461;28;45719;-56
2022/06/05 09:00:20;;;;;;;;;4.50;4.50;;;;;22.99;55.89;100855.34;5019021;28;45362;-57
2022/06/05 09:02:50;;;;;;;;;6.25;6.25;;;;;22.99;56.07;100865.94;5018992;28;45465;-56
2022/06/05 09:05:22;;;;;;;;;4.25;4.25;;;;;23.00;56.01;100861.47;5018630;28;47092;-56
2022/06/05 09:07:52;;;;;;;;;5.00;5.00;;;;;22.99;55.70;100857.13;5018703;28;45328;-57
2022/06/05 09:10:45;;;;;;;;;6.00;6.00;;;;;22.99;55.61;100855.34;5018792;28;45355;-57
2022/06/05 09:13:31;;;;;;;;;8.75;6.00;;;;;23.00;55.46;100861.47;5016167;28;45343;-56
2022/06/05 09:16:00;;;;;;;;;6.50;6.00;;;;;22.99;55.67;100862.41;5018376;28;45375;-58
2022/06/05 09:18:35;;;;;;;;;7.50;6.50;;;;;22.98;55.73;100874.81;5018346;28;45394;-55
2022/06/05 09:21:06;;;;;;;;;5.25;4.25;;;;;23.00;55.73;100883.50;5018873;28;45379;-57
2022/06/05 09:23:51;;;;;;;;;6.25;5.00;;;;;23.00;55.65;100888.78;5019206;28;45304;-55
2022/06/05 09:26:26;;;;;;;;;5.25;5.00;;;;;23.00;55.43;100894.06;5018454;28;45220;-57
2022/06/05 09:29:06;;;;;;;;;7.00;5.75;;;;;23.00;55.13;100895.84;5018431;28;45304;-57
2022/06/05 09:31:46;;;;;;;;;7.75;5.75;;;;;23.00;55.36;100895.84;5018762;28;45442;-57
2022/06/05 09:34:20;;;;;;;;;7.25;6.00;;;;;23.00;55.20;100915.22;5018658;28;45576;-57
2022/06/05 09:36:59;;;;;;;;;6.00;6.00;;;;;23.00;55.16;100919.63;5018245;28;45356;-57
2022/06/05 09:39:31;;;;;;;;;5.50;5.00;;;;;23.00;55.66;100919.63;5018257;28;45386;-56
2022/06/05 09:42:14;;;;;;;;;8.50;6.00;;;;;23.00;55.38;100919.63;5017970;28;45283;-55
2022/06/05 09:44:50;;;;;;;;;7.00;7.00;;;;;23.00;55.65;100922.28;5017085;28;45351;-55
2022/06/05 09:47:28;;;;;;;;;8.00;5.00;;;;;23.00;55.30;100912.56;5018096;28;45274;-56
2022/06/05 09:50:00;;;;;;;;;6.25;6.25;;;;;23.01;55.53;100918.69;5018020;28;45714;-57
2022/06/05 09:52:29;;;;;;;;;6.25;6.00;;;;;23.01;55.75;100913.41;5018122;28;45210;-56
2022/06/05 09:54:55;;;;;;;;;6.00;6.00;;;;;23.01;55.49;100916.03;5018227;28;45322;-57
2022/06/05 10:00:28;;;;;;;;;6.00;6.00;;;;;23.02;55.61;100923.03;5017899;28;45943;-57
2022/06/05 10:03:00;;;;;;;;;6.00;6.00;;;;;23.00;54.99;100922.28;5017986;28;45412;-57
2022/06/05 10:05:35;;;;;;;;;8.00;7.00;;;;;23.01;55.42;100932.75;5018116;28;45502;-57
2022/06/05 10:08:06;;;;;;;;;5.75;5.75;;;;;23.00;55.25;100933.72;5017645;28;45424;-56
2022/06/05 10:10:36;;;;;;;;;5.75;5.75;;;;;23.01;55.26;100943.34;5017625;28;45320;-56
2022/06/05 10:13:37;;;;;;;;;7.25;5.00;;;;;23.01;55.44;100934.53;5017531;28;45336;-56
2022/06/05 10:16:12;;;;;;;;;6.75;6.75;;;;;23.02;55.28;100944.16;5009731;28;45224;-56
2022/06/05 10:18:47;;;;;;;;;7.00;7.00;;;;;23.03;55.36;100945.03;5017617;28;46444;-57
2022/06/05 10:21:14;;;;;;;;;8.00;8.00;;;;;23.02;55.64;100946.81;5017497;28;45257;-57
2022/06/05 10:24:07;;;;;;;;;6.75;6.75;;;;;23.03;55.23;100945.88;5016355;28;45332;-57
2022/06/05 10:26:39;;;;;;;;;7.25;7.25;;;;;23.03;55.22;100951.16;5018138;28;45257;-56
2022/06/05 10:29:09;;;;;;;;;9.00;9.00;;;;;23.03;55.16;100951.16;5017721;28;46106;-57
2022/06/05 10:31:36;;;;;;;;;9.25;7.75;;;;;23.03;54.90;100948.50;5017654;28;45984;-57
2022/06/05 10:34:21;;;;;;;;;7.00;7.00;;;;;23.02;55.43;100946.81;5017534;28;45306;-58
2022/06/05 10:37:05;;;;;;;;;9.00;8.00;;;;;23.03;54.89;100953.81;5017812;28;45789;-56
2022/06/05 10:39:51;;;;;;;;;11.25;9.50;;;;;23.03;55.05;100955.59;5017268;28;46138;-56
2022/06/05 10:42:29;;;;;;;;;9.25;9.00;;;;;23.01;54.59;100953.03;5017089;28;45312;-56
2022/06/05 10:45:13;;;;;;;;;8.75;8.75;;;;;23.03;55.14;100951.16;5017399;28;45171;-57
2022/06/05 10:47:47;;;;;;;;;8.00;8.00;;;;;23.03;54.89;100952.97;5017560;28;45360;-56
2022/06/05 10:50:28;;;;;;;;;10.25;9.25;;;;;23.03;54.91;100953.81;5016377;28;45392;-56
2022/06/05 10:52:54;;;;;;;;;10.25;9.00;;;;;23.03;55.08;100953.81;5016904;28;45778;-57
2022/06/05 10:55:44;;;;;;;;;10.33;10.00;;;;;23.03;54.86;100958.25;5017160;28;45326;-57
2022/06/05 10:58:24;;;;;;;;;9.75;9.75;;;;;23.03;54.98;100959.09;5017367;28;45269;-56
2022/06/05 11:00:49;;;;;;;;;9.25;9.25;;;;;23.03;54.95;100963.53;5016859;28;46155;-57
2022/06/05 11:03:49;;;;;;;;;8.33;8.00;;;;;23.03;54.51;100966.19;5032254;28;45371;-56
2022/06/05 11:06:28;;;;;;;;;10.25;9.75;;;;;23.03;54.77;100964.38;5015222;28;45364;-56
2022/06/05 11:09:11;;;;;;;;;10.00;9.00;;;;;23.04;54.91;100957.31;5017300;28;45346;-55
2022/06/05 11:15:10;;;;;;;;;12.00;10.00;;;;;23.03;54.89;100974.13;5016814;28;45880;-55
2022/06/05 11:17:55;;;;;;;;;10.00;10.00;;;;;23.02;54.54;100973.25;5017251;28;45254;-55
2022/06/05 11:20:24;;;;;;;;;9.00;8.00;;;;;23.03;54.46;100972.31;5016797;28;45444;-53
2022/06/05 11:23:13;;;;;;;;;10.00;10.00;;;;;23.03;54.86;100972.31;5015801;28;45503;-54
2022/06/05 11:25:49;;;;;;;;;10.25;10.25;;;;;23.03;54.76;100971.47;5017019;28;45442;-57
2022/06/05 11:28:33;;;;;;;;;10.25;10.25;;;;;23.03;54.74;100967.03;5016903;28;45177;-56
2022/06/05 11:31:15;;;;;;;;;13.00;10.75;;;;;23.03;54.75;100966.19;5016852;28;45441;-56
2022/06/05 11:34:09;;;;;;;;;13.25;13.00;;;;;23.03;54.45;100964.38;5016692;28;45375;-56
2022/06/05 11:36:44;;;;;;;;;11.00;10.00;;;;;23.04;54.32;100967.88;5016505;28;45907;-56
2022/06/05 11:39:23;;;;;;;;;11.00;9.75;;;;;23.04;54.67;100975.81;5016781;28;45351;-56
2022/06/05 11:42:01;;;;;;;;;10.00;10.00;;;;;23.03;54.30;100982.88;5016882;28;45316;-57
2022/06/05 11:44:27;;;;;;;;;13.50;11.50;;;;;23.03;54.41;100982.88;5016186;28;46584;-56
2022/06/05 11:47:09;;;;;;;;;13.00;11.75;;;;;23.03;54.06;100984.69;5016313;28;45322;-56
2022/06/05 11:49:56;;;;;;;;;12.75;12.00;;;;;23.03;54.32;100984.69;5016444;28;45346;-55
2022/06/05 11:52:41;;;;;;;;;12.25;12.25;;;;;23.03;54.45;100995.25;5016442;28;45294;-54
2022/06/05 11:55:17;;;;;;;;;10.75;10.25;;;;;23.02;54.34;101007.63;5016344;28;46343;-55
2022/06/05 11:57:59;;;;;;;;;12.00;12.00;;;;;23.03;54.15;101011.13;5016261;28;45363;-56